Time;durP1;ratioP1;P1;durP2;ratioP2;P2;SDS_P1;SDS_P2;PMS_P1;PMS_P2;Temp;Humidity;BMP_temperature;BMP_pressure;BME280_temperature;BME280_humidity;BME280_pressure;Samples;Min_cycle;Max_cycle;Signal;HPM_P1;HPM_P2
2024/03/17 00:00:03;;;;;;;1.42;0.70;;;;;;;9.72;50.43;92966.41;6302894;22;20383;-76
2024/03/17 00:02:29;;;;;;;0.82;0.82;;;;;;;9.68;49.73;92960.16;6302952;22;20460;-74
2024/03/17 00:04:55;;;;;;;1.00;0.90;;;;;;;9.68;50.86;92956.75;6275846;22;20057;-76
2024/03/17 00:07:20;;;;;;;1.17;1.00;;;;;;;9.65;51.56;92960.69;6302897;22;20098;-75
2024/03/17 00:09:46;;;;;;;2.08;0.90;;;;;;;9.72;49.61;92965.63;6303208;22;20076;-77
2024/03/17 00:12:12;;;;;;;0.73;0.73;;;;;;;9.67;50.07;92965.66;6302804;22;20089;-76
2024/03/17 00:14:39;;;;;;;1.20;0.90;;;;;;;9.64;50.47;92968.81;6302843;22;20015;-76
2024/03/17 00:17:04;;;;;;;0.95;0.82;;;;;;;9.54;52.05;92965.16;6302770;22;20064;-75
2024/03/17 00:19:30;;;;;;;0.80;0.80;;;;;;;9.47;52.00;92961.28;6302035;22;19999;-77
2024/03/17 00:21:55;;;;;;;1.30;0.90;;;;;;;9.38;52.76;92961.06;6302265;22;20023;-76
2024/03/17 00:24:21;;;;;;;2.13;1.30;;;;;;;9.33;52.73;92954.00;6302689;22;20094;-76
2024/03/17 00:26:47;;;;;;;2.80;0.80;;;;;;;9.32;52.96;92965.53;6275291;22;20459;-76
2024/03/17 00:29:14;;;;;;;0.73;0.70;;;;;;;9.35;52.09;92964.22;6302758;22;20421;-76
2024/03/17 00:31:40;;;;;;;0.80;0.80;;;;;;;9.37;52.07;92960.28;6302854;22;20007;-76
2024/03/17 00:34:06;;;;;;;1.33;0.93;;;;;;;9.40;51.73;92958.19;6303043;22;20020;-76
2024/03/17 00:36:31;;;;;;;0.90;0.90;;;;;;;9.49;51.28;92953.97;6302914;22;20014;-76
2024/03/17 00:38:57;;;;;;;1.00;0.95;;;;;;;9.49;51.41;92952.13;6302968;22;20015;-76
2024/03/17 00:41:23;;;;;;;0.93;0.90;;;;;;;9.49;52.17;92954.75;6275777;22;20007;-76
2024/03/17 00:43:50;;;;;;;1.00;0.90;;;;;;;9.54;51.11;92951.31;6302818;22;20007;-76
2024/03/17 00:46:15;;;;;;;1.58;0.80;;;;;;;9.54;51.21;92951.31;6302994;22;20019;-76
2024/03/17 00:48:41;;;;;;;2.05;1.00;;;;;;;9.57;50.66;92953.41;6303006;22;20330;-77
2024/03/17 00:51:07;;;;;;;0.77;0.75;;;;;;;9.64;50.62;92953.91;6302918;22;20098;-76
2024/03/17 00:53:32;;;;;;;0.80;0.80;;;;;;;9.71;49.68;92956.22;6302895;22;20130;-75
2024/03/17 00:55:58;;;;;;;1.00;0.80;;;;;;;9.65;50.74;92960.69;6275539;22;20011;-76
2024/03/17 00:58:24;;;;;;;1.65;0.90;;;;;;;9.65;50.63;92960.69;6304137;22;20007;-76
2024/03/17 01:00:50;;;;;;;1.05;0.90;;;;;;;9.64;50.54;92948.69;6251155;22;19999;-75
2024/03/17 01:03:16;;;;;;;0.77;0.77;;;;;;;9.61;50.84;92949.19;6304609;22;20011;-77
2024/03/17 01:05:44;;;;;;;1.58;1.08;;;;;;;9.62;50.33;92953.38;6305180;22;20015;-77
2024/03/17 01:08:13;;;;;;;0.70;0.70;;;;;;;9.52;51.69;92954.19;6304972;22;20000;-76
2024/03/17 01:10:42;;;;;;;1.00;0.90;;;;;;;9.46;51.78;92957.13;6304679;22;20834;-76
2024/03/17 01:13:09;;;;;;;1.65;0.85;;;;;;;9.40;52.24;92958.19;6304839;22;20396;-77
2024/03/17 01:15:40;;;;;;;1.15;0.98;;;;;;;9.36;51.65;92952.69;6304967;22;19999;-76
2024/03/17 01:18:06;;;;;;;0.73;0.73;;;;;;;9.33;51.87;92951.41;6304877;22;20018;-77
2024/03/17 01:20:37;;;;;;;1.00;1.00;;;;;;;9.33;51.86;92948.78;6304276;22;20019;-75
2024/03/17 01:23:04;;;;;;;1.05;0.90;;;;;;;9.36;51.17;92953.47;6304579;22;20019;-76
2024/03/17 01:25:30;;;;;;;1.13;1.05;;;;;;;9.32;51.27;92952.47;6305226;22;20480;-76
2024/03/17 01:27:56;;;;;;;1.30;1.00;;;;;;;9.34;51.59;92945.16;6304623;22;20365;-75
2024/03/17 01:30:23;;;;;;;1.30;1.05;;;;;;;9.36;52.33;92940.41;6304737;22;20011;-76
2024/03/17 01:32:51;;;;;;;1.70;0.77;;;;;;;9.29;52.30;92939.91;6304678;22;20062;-74
2024/03/17 01:35:17;;;;;;;0.80;0.75;;;;;;;9.21;53.38;92950.13;6304769;22;20086;-76
2024/03/17 01:37:42;;;;;;;1.60;0.90;;;;;;;9.12;53.73;92944.69;6304482;22;20034;-76
2024/03/17 01:40:11;;;;;;;3.72;0.93;;;;;;;9.09;53.26;92945.19;6304504;22;20341;-76
2024/03/17 01:42:38;;;;;;;1.08;0.90;;;;;;;9.11;53.19;92943.09;6304412;22;20357;-75
2024/03/17 01:45:31;;;;;;;0.70;0.70;;;;;;;9.05;54.26;92947.56;6304533;22;20042;-76
2024/03/17 01:47:59;;;;;;;1.95;0.90;;;;;;;9.01;54.07;92935.31;6274702;22;20462;-75
2024/03/17 01:50:31;;;;;;;0.68;0.68;;;;;;;8.98;54.10;92941.03;6304658;22;20002;-76
2024/03/17 01:52:59;;;;;;;1.25;0.80;;;;;;;8.92;54.20;92935.84;6304654;22;20042;-76
2024/03/17 01:55:27;;;;;;;2.15;1.00;;;;;;;8.87;54.79;92941.09;6304333;22;20050;-76
2024/03/17 01:57:53;;;;;;;0.93;0.90;;;;;;;8.83;53.89;92931.44;6277131;22;20034;-75
2024/03/17 02:00:19;;;;;;;1.13;0.80;;;;;;;8.89;54.95;92928.56;6304498;22;20011;-77
2024/03/17 02:02:45;;;;;;;1.00;0.90;;;;;;;8.84;55.05;92931.16;6304265;22;20007;-77
2024/03/17 02:05:10;;;;;;;1.00;0.80;;;;;;;8.78;55.29;92924.41;6277091;22;20443;-75
2024/03/17 02:07:36;;;;;;;0.75;0.75;;;;;;;8.78;55.05;92927.00;6303940;22;20011;-76
2024/03/17 02:10:05;;;;;;;1.85;0.90;;;;;;;8.82;53.36;92928.00;6303898;22;20015;-76
2024/03/17 02:12:31;;;;;;;1.30;1.00;;;;;;;8.81;56.80;92931.69;6303863;22;20424;-76
2024/03/17 02:15:00;;;;;;;2.10;1.00;;;;;;;8.74;57.19;92923.34;6305030;22;20039;-76
2024/03/17 02:17:27;;;;;;;1.50;1.00;;;;;;;8.72;57.48;92917.59;6304237;22;20042;-76
2024/03/17 02:19:52;;;;;;;1.98;1.20;;;;;;;8.63;59.65;92921.78;6303458;22;19999;-75
2024/03/17 02:22:18;;;;;;;1.50;0.93;;;;;;;8.51;60.21;92927.25;6303925;22;20082;-75
2024/03/17 02:24:44;;;;;;;1.58;1.10;;;;;;;8.40;60.80;92931.72;6304161;22;20022;-76
2024/03/17 02:27:10;;;;;;;1.42;1.00;;;;;;;8.32;61.47;92935.59;6304136;22;20007;-76
2024/03/17 02:29:36;;;;;;;1.98;1.00;;;;;;;8.23;62.75;92925.94;6304196;22;20448;-76
2024/03/17 02:32:07;;;;;;;1.00;0.80;;;;;;;8.11;63.14;92926.97;6304232;22;20006;-76
2024/03/17 02:34:37;;;;;;;0.90;0.90;;;;;;;8.01;64.42;92919.13;6304089;22;20427;-73
2024/03/17 02:37:04;;;;;;;3.33;1.23;;;;;;;7.94;64.14;92918.63;6304053;22;20094;-76
2024/03/17 02:39:33;;;;;;;1.23;0.90;;;;;;;7.87;65.32;92920.69;6303895;22;20002;-75
2024/03/17 02:42:10;;;;;;;1.42;1.00;;;;;;;7.84;64.15;92916.78;6303982;22;20017;-76
2024/03/17 02:44:37;;;;;;;1.50;1.10;;;;;;;7.80;65.02;92920.16;6303725;22;20098;-76
2024/03/17 02:47:05;;;;;;;1.73;1.10;;;;;;;7.74;65.88;92924.56;6303877;22;20078;-76
2024/03/17 02:49:39;;;;;;;2.00;1.10;;;;;;;7.66;66.26;92927.69;6303771;22;20039;-75
2024/03/17 02:52:09;;;;;;;1.83;1.10;;;;;;;7.59;66.14;92933.13;6304037;22;20015;-76
2024/03/17 02:54:35;;;;;;;1.10;1.00;;;;;;;7.53;67.48;92928.94;6303878;22;20482;-76
2024/03/17 02:57:01;;;;;;;3.00;1.30;;;;;;;7.45;68.80;92927.63;6303904;22;20011;-76
2024/03/17 02:59:27;;;;;;;1.27;0.80;;;;;;;7.38;69.42;92932.28;6276478;22;20094;-76
2024/03/17 03:01:53;;;;;;;2.35;1.20;;;;;;;7.32;70.70;92927.28;6303372;22;20337;-76
2024/03/17 03:04:18;;;;;;;2.15;1.00;;;;;;;7.26;70.90;92926.50;6303923;22;20011;-76
2024/03/17 03:06:44;;;;;;;1.40;1.20;;;;;;;7.22;71.17;92926.22;6303869;22;20030;-76
2024/03/17 03:09:20;;;;;;;1.58;1.10;;;;;;;7.18;71.06;92925.19;6304174;22;20003;-76
2024/03/17 03:11:46;;;;;;;1.33;1.00;;;;;;;7.21;70.45;92919.47;6303714;22;20003;-75
2024/03/17 03:14:12;;;;;;;1.15;0.90;;;;;;;7.22;70.62;92917.63;6303626;22;20015;-76
2024/03/17 03:16:38;;;;;;;2.35;1.15;;;;;;;7.21;71.68;92916.84;6276651;22;20052;-76
2024/03/17 03:19:05;;;;;;;1.60;1.20;;;;;;;7.17;72.65;92921.00;6303090;22;20141;-76
2024/03/17 03:21:31;;;;;;;0.98;0.90;;;;;;;7.15;73.60;92920.47;6276243;22;20334;-74
2024/03/17 03:23:57;;;;;;;1.20;0.95;;;;;;;7.12;73.21;92923.59;6276165;22;20153;-73
2024/03/17 03:26:23;;;;;;;1.45;1.00;;;;;;;7.08;74.50;92922.53;6303552;22;20043;-76
2024/03/17 03:28:49;;;;;;;1.58;1.10;;;;;;;7.06;73.23;92920.16;6303914;22;20015;-76
2024/03/17 03:31:15;;;;;;;1.67;1.15;;;;;;;7.05;74.36;92923.03;6303339;22;20003;-75
2024/03/17 03:33:41;;;;;;;1.55;1.10;;;;;;;7.02;75.40;92923.53;6276467;22;20059;-74
2024/03/17 03:36:11;;;;;;;1.27;1.10;;;;;;;7.01;75.25;92916.75;6303515;22;20015;-76
2024/03/17 03:38:37;;;;;;;2.78;1.10;;;;;;;6.99;75.66;92921.44;6303458;22;20403;-74
2024/03/17 03:41:16;;;;;;;2.10;1.13;;;;;;;6.96;76.91;92919.31;6303173;22;20003;-74
2024/03/17 03:43:43;;;;;;;1.42;0.95;;;;;;;6.93;77.80;92925.03;6303547;22;20072;-75
2024/03/17 03:46:08;;;;;;;1.52;1.20;;;;;;;6.86;78.13;92915.63;6303554;22;20077;-76
2024/03/17 03:48:34;;;;;;;1.85;1.15;;;;;;;6.85;78.38;92916.69;6303636;22;20255;-76
2024/03/17 03:51:09;;;;;;;1.70;1.00;;;;;;;6.80;79.04;92924.47;6303349;22;20332;-76
2024/03/17 03:53:35;;;;;;;1.40;1.02;;;;;;;6.75;79.06;92916.63;6303302;22;20424;-75
2024/03/17 03:56:06;;;;;;;1.50;1.20;;;;;;;6.72;78.37;92919.72;6303397;22;20072;-76
2024/03/17 03:58:35;;;;;;;3.40;1.30;;;;;;;6.71;78.61;92919.97;6303730;22;20011;-76
2024/03/17 04:01:04;;;;;;;1.65;1.13;;;;;;;6.71;78.23;92917.38;6303000;22;20332;-76
2024/03/17 04:03:30;;;;;;;1.83;1.23;;;;;;;6.70;79.05;92927.00;6303383;22;20014;-76
2024/03/17 04:06:06;;;;;;;2.22;1.20;;;;;;;6.69;78.40;92925.44;6303454;22;20263;-76
2024/03/17 04:08:33;;;;;;;1.15;1.05;;;;;;;6.67;78.36;92928.28;6303226;22;20058;-76
2024/03/17 04:10:58;;;;;;;1.17;1.00;;;;;;;6.65;77.97;92932.94;6303564;22;20418;-76
2024/03/17 04:13:24;;;;;;;1.05;0.95;;;;;;;6.65;78.08;92934.78;6303262;22;20007;-76
2024/03/17 04:15:50;;;;;;;2.20;1.05;;;;;;;6.63;77.88;92939.44;6303540;22;20024;-75
2024/03/17 04:18:17;;;;;;;1.23;0.93;;;;;;;6.62;78.19;92930.06;6303175;22;20007;-76
2024/03/17 04:20:43;;;;;;;5.25;1.10;;;;;;;6.60;78.57;92939.94;6302510;22;20018;-76
2024/03/17 04:23:08;;;;;;;1.50;1.10;;;;;;;6.57;78.74;92938.59;6302943;22;20441;-74
2024/03/17 04:25:34;;;;;;;1.35;1.00;;;;;;;6.57;78.32;92937.84;6302963;22;20050;-76
2024/03/17 04:27:59;;;;;;;1.70;1.20;;;;;;;6.55;78.53;92951.09;6303105;22;20015;-75
2024/03/17 04:30:25;;;;;;;1.08;1.00;;;;;;;6.53;78.31;92941.97;6275732;22;20015;-76
2024/03/17 04:32:51;;;;;;;1.15;1.00;;;;;;;6.51;78.20;92947.44;6303220;22;20487;-76
2024/03/17 04:35:17;;;;;;;1.58;1.10;;;;;;;6.49;78.69;92933.13;6302717;22;20513;-76
2024/03/17 04:37:43;;;;;;;1.95;1.20;;;;;;;6.47;79.42;92933.34;6303151;22;20090;-76
2024/03/17 04:40:11;;;;;;;4.78;1.23;;;;;;;6.44;79.67;92939.84;6302981;22;20433;-76
2024/03/17 04:42:38;;;;;;;2.13;1.15;;;;;;;6.42;78.99;92944.50;6302891;22;20020;-76
2024/03/17 04:45:06;;;;;;;1.23;1.00;;;;;;;6.39;78.96;92931.97;6302842;22;20038;-76
2024/03/17 04:47:31;;;;;;;3.60;1.30;;;;;;;6.37;79.44;92934.06;6275827;22;20011;-76
2024/03/17 04:49:57;;;;;;;1.65;1.15;;;;;;;6.37;78.67;92941.88;6302911;22;20014;-76
2024/03/17 04:52:23;;;;;;;1.80;1.10;;;;;;;6.37;78.71;92941.88;6303067;22;20012;-76
2024/03/17 04:54:48;;;;;;;1.40;1.10;;;;;;;6.37;79.93;92934.06;6275652;22;20019;-75
2024/03/17 04:57:14;;;;;;;2.00;1.25;;;;;;;6.37;79.87;92939.28;6303152;22;20061;-76
2024/03/17 04:59:39;;;;;;;1.38;0.98;;;;;;;6.37;79.83;92936.66;6302768;22;20039;-76
2024/03/17 05:02:05;;;;;;;1.63;1.10;;;;;;;6.35;79.35;92936.13;6302876;22;20084;-76
2024/03/17 05:04:31;;;;;;;4.25;1.30;;;;;;;6.36;79.43;92940.28;6302756;22;20420;-76
2024/03/17 05:06:56;;;;;;;1.25;0.90;;;;;;;6.33;80.29;92938.19;6303004;22;20049;-75
2024/03/17 05:09:22;;;;;;;2.72;1.30;;;;;;;6.30;80.32;92948.28;6275486;22;20015;-76
2024/03/17 05:11:51;;;;;;;1.27;1.10;;;;;;;6.28;80.36;92951.13;6303032;22;19999;-76
2024/03/17 05:14:19;;;;;;;1.25;1.00;;;;;;;6.25;81.07;92946.44;6302945;22;20011;-76
2024/03/17 05:16:44;;;;;;;2.63;1.00;;;;;;;6.24;81.06;92950.09;6302651;22;20479;-74
2024/03/17 05:19:10;;;;;;;2.70;0.95;;;;;;;6.27;80.83;92951.41;6302578;22;20003;-76
2024/03/17 05:21:36;;;;;;;1.25;0.90;;;;;;;6.28;80.70;92953.72;6302631;22;20102;-76
2024/03/17 05:24:02;;;;;;;1.05;0.93;;;;;;;6.28;80.66;92947.75;6302783;22;20054;-75
2024/03/17 05:26:28;;;;;;;3.90;1.10;;;;;;;6.27;80.59;92949.56;6302763;22;20110;-76
2024/03/17 05:28:53;;;;;;;3.58;1.10;;;;;;;6.25;80.05;92949.03;6302846;22;20043;-76
2024/03/17 05:31:21;;;;;;;1.38;1.13;;;;;;;6.29;80.69;92954.53;6302772;22;20022;-77
2024/03/17 05:33:47;;;;;;;1.60;1.00;;;;;;;6.30;80.39;92959.47;6302759;22;20329;-75
2024/03/17 05:36:13;;;;;;;1.92;1.08;;;;;;;6.31;80.37;92961.06;6302770;22;20087;-76
2024/03/17 05:38:39;;;;;;;1.65;1.20;;;;;;;6.33;79.56;92961.59;6302864;22;20018;-76
2024/03/17 05:41:09;;;;;;;1.52;1.00;;;;;;;6.36;79.46;92952.50;6302862;22;20424;-75
2024/03/17 05:43:38;;;;;;;1.15;1.05;;;;;;;6.41;79.24;92957.75;6302492;22;20111;-76
2024/03/17 05:46:08;;;;;;;1.70;1.08;;;;;;;6.47;79.19;92967.16;6302178;22;20112;-74
2024/03/17 05:48:37;;;;;;;0.93;0.88;;;;;;;6.53;79.23;92963.56;6304521;22;20333;-76
2024/03/17 05:51:04;;;;;;;1.60;1.20;;;;;;;6.66;78.82;92967.56;6304488;22;20437;-76
2024/03/17 05:53:31;;;;;;;1.90;1.00;;;;;;;6.75;78.76;92966.06;6304571;22;20018;-73
2024/03/17 05:56:01;;;;;;;1.67;1.13;;;;;;;6.78;78.42;92968.16;6304139;22;20095;-76
2024/03/17 05:58:27;;;;;;;0.95;0.90;;;;;;;6.85;77.80;92968.72;6304026;22;20076;-75
2024/03/17 06:00:52;;;;;;;1.15;0.82;;;;;;;7.01;77.18;92967.00;6277391;22;20440;-76
2024/03/17 06:03:18;;;;;;;1.50;1.10;;;;;;;7.36;75.58;92965.59;6304353;22;20090;-76
2024/03/17 06:05:46;;;;;;;1.58;1.10;;;;;;;7.57;74.14;92971.69;6277344;22;20015;-76
2024/03/17 06:08:12;;;;;;;2.30;0.90;;;;;;;7.68;74.36;92970.69;6305731;22;20022;-77
2024/03/17 06:10:43;;;;;;;1.35;1.20;;;;;;;7.89;73.93;92973.34;6279044;22;20011;-78
2024/03/17 06:13:11;;;;;;;1.73;1.08;;;;;;;8.12;73.57;92970.25;6305028;22;20011;-76
2024/03/17 06:15:38;;;;;;;1.15;1.00;;;;;;;8.26;70.85;92967.16;6279401;22;20108;-78
2024/03/17 06:18:03;;;;;;;1.10;1.00;;;;;;;8.33;70.54;92978.09;6304370;22;20022;-75
2024/03/17 06:20:29;;;;;;;1.05;1.00;;;;;;;8.32;72.73;92974.72;6304785;22;20015;-77
2024/03/17 06:22:55;;;;;;;2.95;0.90;;;;;;;8.33;72.80;92983.31;6306063;22;20395;-77
2024/03/17 06:25:24;;;;;;;1.00;0.90;;;;;;;8.30;71.72;92987.22;6278395;22;20490;-77
2024/03/17 06:27:51;;;;;;;2.15;1.13;;;;;;;8.28;70.88;92989.31;6277650;22;20023;-77
2024/03/17 06:30:16;;;;;;;1.10;0.88;;;;;;;8.30;71.36;92996.91;6305174;22;20064;-78
2024/03/17 06:32:45;;;;;;;1.17;0.90;;;;;;;8.38;71.38;92995.63;6278200;22;20011;-78
2024/03/17 06:35:18;;;;;;;1.90;1.00;;;;;;;8.48;70.23;93004.25;6306196;22;20011;-76
2024/03/17 06:37:45;;;;;;;1.08;0.95;;;;;;;8.76;70.90;93007.41;6304716;22;20019;-76
2024/03/17 06:40:14;;;;;;;1.50;1.20;;;;;;;9.35;70.69;93009.41;6276181;22;20505;-77
2024/03/17 06:42:40;;;;;;;1.42;1.02;;;;;;;10.14;68.25;92999.16;6302249;22;20404;-77
2024/03/17 06:45:08;;;;;;;1.60;1.00;;;;;;;10.87;65.01;92999.47;6302752;22;20102;-76
2024/03/17 06:47:40;;;;;;;1.35;0.95;;;;;;;11.48;59.01;92998.88;6302241;22;20408;-76
2024/03/17 06:50:06;;;;;;;1.77;1.13;;;;;;;12.08;57.19;93003.72;6275478;22;20094;-78
2024/03/17 06:52:32;;;;;;;1.08;0.93;;;;;;;12.68;54.03;93006.56;6304162;22;20011;-77
2024/03/17 06:55:01;;;;;;;1.45;1.10;;;;;;;13.20;52.08;93014.44;6274828;22;20052;-78
2024/03/17 06:57:26;;;;;;;1.23;1.00;;;;;;;13.32;48.88;93009.50;6305163;22;20019;-77
2024/03/17 06:59:52;;;;;;;1.50;1.00;;;;;;;13.22;49.11;93003.63;6278339;22;20074;-78
2024/03/17 07:02:19;;;;;;;1.55;1.10;;;;;;;12.97;49.34;93000.34;6305426;22;20007;-77
2024/03/17 07:04:46;;;;;;;0.98;0.90;;;;;;;12.94;50.16;93006.16;6251758;22;20019;-77
2024/03/17 07:07:13;;;;;;;2.40;1.30;;;;;;;13.10;53.45;93001.44;6304671;22;20034;-76
2024/03/17 07:09:39;;;;;;;1.10;0.90;;;;;;;13.14;49.90;93007.69;6305085;22;20587;-78
2024/03/17 07:12:09;;;;;;;1.55;1.00;;;;;;;13.07;49.48;93000.19;6303441;22;20367;-77
2024/03/17 07:14:35;;;;;;;1.70;1.00;;;;;;;13.14;47.58;92999.81;6304245;22;20007;-78
2024/03/17 07:17:01;;;;;;;1.90;0.90;;;;;;;13.29;49.59;93006.69;6303086;22;20007;-78
2024/03/17 07:19:28;;;;;;;2.20;1.20;;;;;;;13.39;47.38;93003.09;6303749;22;20011;-78
2024/03/17 07:21:54;;;;;;;1.10;1.00;;;;;;;13.67;47.80;92998.66;6303682;22;20019;-75
2024/03/17 07:24:20;;;;;;;2.35;1.10;;;;;;;14.09;45.31;92996.75;6304996;22;20023;-77
2024/03/17 07:26:48;;;;;;;1.60;0.95;;;;;;;14.65;43.67;93000.06;6304649;22;20091;-77
2024/03/17 07:29:14;;;;;;;1.38;0.90;;;;;;;14.86;42.99;92997.72;6304807;22;20019;-77
2024/03/17 07:31:39;;;;;;;0.98;0.90;;;;;;;15.14;41.41;92993.13;6304661;22;20000;-76
2024/03/17 07:34:05;;;;;;;1.30;0.95;;;;;;;15.08;42.12;92996.94;6303765;22;20011;-77
2024/03/17 07:36:30;;;;;;;1.67;1.00;;;;;;;14.29;44.73;92993.69;6277510;22;20011;-77
2024/03/17 07:38:56;;;;;;;2.38;1.20;;;;;;;14.26;46.53;92996.94;6304714;22;20052;-77
2024/03/17 07:41:24;;;;;;;1.88;1.17;;;;;;;13.78;47.53;92997.38;6301404;22;20030;-78
2024/03/17 07:43:50;;;;;;;1.77;1.02;;;;;;;13.36;47.32;93008.94;6304559;22;20023;-77
2024/03/17 07:46:15;;;;;;;1.73;1.02;;;;;;;12.99;48.07;93008.75;6304947;22;20039;-77
2024/03/17 07:48:43;;;;;;;2.25;1.02;;;;;;;12.56;50.32;93008.84;6304911;22;19999;-77
2024/03/17 07:51:14;;;;;;;1.33;1.00;;;;;;;12.63;51.29;93006.66;6304634;22;20011;-76
2024/03/17 07:53:44;;;;;;;1.65;1.02;;;;;;;12.80;51.18;93013.25;6304830;22;20021;-77
2024/03/17 07:56:12;;;;;;;1.92;1.17;;;;;;;12.82;49.98;93011.09;6304571;22;20015;-77
2024/03/17 07:58:39;;;;;;;2.10;1.08;;;;;;;13.05;46.76;93007.56;6277055;22;20007;-77
2024/03/17 08:01:07;;;;;;;1.50;1.10;;;;;;;13.18;49.32;93010.53;6304410;22;20018;-77
2024/03/17 08:03:34;;;;;;;1.58;1.00;;;;;;;13.38;46.76;93015.47;6304726;22;20013;-78
2024/03/17 08:06:01;;;;;;;1.35;1.10;;;;;;;13.74;46.32;93007.69;6305490;22;20003;-78
2024/03/17 08:08:27;;;;;;;1.40;1.00;;;;;;;14.29;44.76;93012.13;6304576;22;20034;-77
2024/03/17 08:10:53;;;;;;;1.73;1.02;;;;;;;14.49;46.90;93010.13;6304280;22;20216;-78
2024/03/17 08:13:19;;;;;;;1.65;1.00;;;;;;;14.68;45.35;93010.00;6276775;22;20276;-77
2024/03/17 08:15:46;;;;;;;1.95;1.20;;;;;;;14.17;47.69;93019.75;6278641;22;20018;-75
2024/03/17 08:18:12;;;;;;;2.45;1.20;;;;;;;13.91;48.29;93017.63;6304657;22;20011;-77
2024/03/17 08:20:43;;;;;;;1.92;1.10;;;;;;;13.69;49.71;93009.63;6303424;22;20044;-77
2024/03/17 08:23:10;;;;;;;1.38;1.02;;;;;;;13.53;47.95;93014.41;6277133;22;20039;-77
2024/03/17 08:25:36;;;;;;;2.50;1.13;;;;;;;13.71;48.52;93012.75;6304086;22;20528;-78
2024/03/17 08:28:03;;;;;;;2.25;1.20;;;;;;;13.68;45.43;93011.50;6304820;22;20042;-77
2024/03/17 08:30:30;;;;;;;1.23;0.98;;;;;;;13.86;45.03;93014.31;6304007;22;20007;-77
2024/03/17 08:32:59;;;;;;;1.75;1.10;;;;;;;13.93;46.18;93010.22;6304366;22;20090;-77
2024/03/17 08:35:25;;;;;;;3.17;1.67;;;;;;;14.00;46.02;93007.19;6303916;22;20517;-76
2024/03/17 08:37:56;;;;;;;1.67;0.90;;;;;;;14.13;47.03;93009.03;6304448;22;20015;-78
2024/03/17 08:40:25;;;;;;;0.93;0.90;;;;;;;14.12;42.27;93007.47;6304053;22;20365;-76
2024/03/17 08:42:50;;;;;;;1.35;0.93;;;;;;;13.97;42.72;93017.53;6305428;22;20333;-78
2024/03/17 08:45:16;;;;;;;1.95;1.20;;;;;;;13.78;48.46;93012.38;6304465;22;20007;-76
2024/03/17 08:47:42;;;;;;;1.65;1.00;;;;;;;13.71;45.45;93018.00;6304782;22;20322;-76
2024/03/17 08:50:08;;;;;;;2.45;0.95;;;;;;;13.38;47.64;93025.22;6305267;22;20399;-77
2024/03/17 08:52:34;;;;;;;1.60;1.00;;;;;;;13.38;45.96;93018.09;6304449;22;20459;-76
2024/03/17 08:55:02;;;;;;;3.50;1.20;;;;;;;13.24;46.57;93022.50;6303840;22;20425;-77
2024/03/17 08:57:28;;;;;;;1.08;0.70;;;;;;;13.22;45.90;93022.03;6276918;22;20326;-77
2024/03/17 08:59:54;;;;;;;3.15;1.08;;;;;;;13.26;45.21;93020.38;6303280;22;20026;-76
2024/03/17 09:02:22;;;;;;;1.73;0.90;;;;;;;13.15;44.36;93017.16;6303648;22;20012;-77
2024/03/17 09:04:48;;;;;;;1.73;0.90;;;;;;;13.08;45.86;93017.53;6303957;22;20108;-77
2024/03/17 09:07:16;;;;;;;1.90;1.00;;;;;;;12.79;48.32;93022.16;6303479;22;20019;-77
2024/03/17 09:09:42;;;;;;;2.10;0.93;;;;;;;12.72;47.46;93025.16;6303977;22;20062;-76
2024/03/17 09:12:09;;;;;;;2.58;1.10;;;;;;;13.13;46.50;93027.16;6303842;22;20016;-77
2024/03/17 09:14:34;;;;;;;1.10;0.90;;;;;;;12.96;46.26;93029.53;6303562;22;20452;-76
2024/03/17 09:17:00;;;;;;;1.80;0.88;;;;;;;12.89;45.60;93020.16;6304127;22;20041;-77
2024/03/17 09:19:25;;;;;;;1.75;1.00;;;;;;;12.69;46.14;93023.88;6303524;22;20375;-76
2024/03/17 09:21:51;;;;;;;1.33;0.95;;;;;;;12.75;47.02;93029.09;6304336;22;20011;-77
2024/03/17 09:24:16;;;;;;;1.15;0.90;;;;;;;12.90;45.61;93027.00;6305826;22;20067;-77
2024/03/17 09:26:42;;;;;;;1.45;1.10;;;;;;;12.88;46.36;93025.72;6305876;22;20011;-77
2024/03/17 09:29:07;;;;;;;1.15;0.90;;;;;;;12.86;44.56;93023.38;6305864;22;20069;-76
2024/03/17 09:31:33;;;;;;;0.80;0.80;;;;;;;13.04;44.95;93028.91;6305967;22;20042;-76
2024/03/17 09:33:59;;;;;;;1.05;0.80;;;;;;;12.91;42.77;93027.78;6278476;22;20013;-77
2024/03/17 09:36:25;;;;;;;1.70;0.98;;;;;;;13.07;44.41;93026.47;6278244;22;20007;-76
2024/03/17 09:38:51;;;;;;;1.67;0.82;;;;;;;12.94;43.92;93026.41;6306018;22;20322;-78
2024/03/17 09:41:26;;;;;;;1.48;0.90;;;;;;;13.03;46.14;93019.44;6305665;22;20444;-77
2024/03/17 09:43:58;;;;;;;1.08;0.93;;;;;;;12.81;49.55;93025.28;6304764;22;20019;-77
2024/03/17 09:46:27;;;;;;;;;;;;;;;12.81;45.71;93025.28;6305578;22;20018;-76
2024/03/17 09:48:53;;;;;;;1.20;0.90;;;;;;;12.60;43.62;93022.19;6305366;22;20221;-77
2024/03/17 09:51:25;;;;;;;1.63;1.00;;;;;;;12.33;45.31;93022.84;6277654;22;20330;-75
2024/03/17 09:53:51;;;;;;;1.98;0.90;;;;;;;12.47;45.38;93019.25;6277948;22;20015;-77
2024/03/17 09:56:19;;;;;;;1.85;1.08;;;;;;;12.30;46.20;93018.94;6306359;22;20038;-78
2024/03/17 09:58:49;;;;;;;1.35;0.95;;;;;;;12.25;47.60;93017.16;6275540;22;20005;-78
2024/03/17 10:01:16;;;;;;;1.02;0.90;;;;;;;12.23;45.85;93015.88;6303888;22;20007;-77
2024/03/17 10:03:54;;;;;;;1.67;1.00;;;;;;;12.34;45.70;93008.63;6303670;22;20018;-76
2024/03/17 10:06:22;;;;;;;1.27;0.90;;;;;;;12.32;48.34;93010.78;6302752;22;20016;-75
2024/03/17 10:08:56;;;;;;;1.27;0.90;;;;;;;12.32;46.67;93018.66;6305295;22;20011;-77
2024/03/17 10:11:32;;;;;;;3.97;1.00;;;;;;;12.47;46.78;93010.56;6305225;22;20018;-77
2024/03/17 10:14:10;;;;;;;2.75;1.02;;;;;;;12.47;46.25;93013.19;6278076;22;20011;-78
2024/03/17 10:16:38;;;;;;;1.90;1.10;;;;;;;12.49;48.10;93003.94;6305638;22;20023;-78
2024/03/17 10:19:19;;;;;;;1.50;1.05;;;;;;;12.56;49.79;93011.47;6304782;22;20203;-77
2024/03/17 10:21:49;;;;;;;1.55;1.10;;;;;;;12.73;50.30;93000.47;6305505;22;20014;-77
2024/03/17 10:24:23;;;;;;;0.95;0.93;;;;;;;12.64;51.83;92997.69;6307417;22;20042;-77
2024/03/17 10:26:50;;;;;;;1.45;0.88;;;;;;;12.68;49.22;93009.22;6307451;22;20341;-77
2024/03/17 10:29:30;;;;;;;1.75;1.15;;;;;;;12.64;50.45;93002.19;6281418;22;20007;-76
2024/03/17 10:31:57;;;;;;;2.47;1.20;;;;;;;12.60;48.33;93006.44;6305862;22;20021;-77
2024/03/17 10:34:25;;;;;;;2.17;1.27;;;;;;;12.70;51.49;92996.56;6304417;22;20078;-76
2024/03/17 10:37:12;;;;;;;2.40;1.10;;;;;;;12.91;54.65;93006.75;6304735;22;20037;-76
2024/03/17 10:39:40;;;;;;;2.15;1.13;;;;;;;12.92;52.32;93008.31;6304466;22;20015;-78
2024/03/17 10:42:07;;;;;;;1.23;0.90;;;;;;;13.08;52.86;93003.56;6304066;22;20012;-75
2024/03/17 10:44:36;;;;;;;4.57;1.35;;;;;;;13.15;52.35;93005.84;6304591;22;19995;-74
2024/03/17 10:47:04;;;;;;;1.42;1.10;;;;;;;13.30;52.51;93005.59;6304188;22;20023;-79
2024/03/17 10:49:31;;;;;;;1.88;1.20;;;;;;;13.30;52.58;93005.59;6304899;22;20038;-75
2024/03/17 10:52:05;;;;;;;1.65;1.08;;;;;;;13.51;54.01;93004.19;6304437;22;20341;-77
2024/03/17 10:54:32;;;;;;;1.10;1.00;;;;;;;13.84;47.24;93001.44;6305751;22;20070;-78
2024/03/17 10:57:19;;;;;;;1.67;1.20;;;;;;;14.01;53.79;93010.63;6302935;22;20007;-76
2024/03/17 10:59:48;;;;;;;1.20;0.90;;;;;;;14.04;41.48;93000.28;6304271;22;20011;-75
2024/03/17 11:02:25;;;;;;;1.23;0.90;;;;;;;14.17;45.49;93003.97;6304344;22;20022;-78
2024/03/17 11:04:56;;;;;;;0.85;0.85;;;;;;;14.44;44.53;93010.25;6304342;22;20015;-77
2024/03/17 11:07:22;;;;;;;1.10;0.90;;;;;;;14.81;45.65;93006.53;6306637;22;20038;-78
2024/03/17 11:09:50;;;;;;;2.20;1.27;;;;;;;15.12;43.10;93001.31;6304797;22;20045;-78
2024/03/17 11:12:44;;;;;;;1.65;1.05;;;;;;;15.44;43.59;93003.97;6304935;22;20089;-76
2024/03/17 11:15:18;;;;;;;1.80;1.27;;;;;;;15.37;46.48;93001.78;6303965;22;20061;-76
2024/03/17 11:17:51;;;;;;;4.53;1.30;;;;;;;15.04;46.81;93001.25;6305281;22;20007;-77
2024/03/17 11:20:28;;;;;;;2.67;1.35;;;;;;;14.89;46.04;93005.84;6303812;22;20403;-76
2024/03/17 11:22:58;;;;;;;2.85;1.20;;;;;;;14.78;45.30;93007.91;6305394;22;20540;-77
2024/03/17 11:25:27;;;;;;;1.10;1.00;;;;;;;14.63;45.38;93007.50;6276368;22;20046;-77
2024/03/17 11:27:53;;;;;;;2.20;1.08;;;;;;;14.77;46.03;93011.66;6304092;22;20022;-76
2024/03/17 11:30:44;;;;;;;1.75;1.30;;;;;;;14.78;45.72;92996.59;6304241;22;20086;-78
2024/03/17 11:33:31;;;;;;;1.17;0.80;;;;;;;14.89;42.34;92991.88;6303892;22;20086;-76
2024/03/17 11:36:22;;;;;;;1.63;1.08;;;;;;;14.93;44.72;92988.34;6303875;22;20086;-77
2024/03/17 11:39:27;;;;;;;1.03;0.80;;;;;;;14.77;44.05;93001.09;6303526;22;20345;-76
2024/03/17 11:41:54;;;;;;;1.63;1.00;;;;;;;14.76;43.21;92989.00;6303353;22;20011;-74